sensor_id;sensor_type;location;lat;lon;timestamp;P1;durP1;ratioP1;P2;durP2;ratioP2
19205;SDS011;59358;52.134;5.596;2023-06-22T00:02:01;9.63;;;8.60;;
19205;SDS011;59358;52.134;5.596;2023-06-22T00:04:28;10.07;;;7.90;;
19205;SDS011;59358;52.134;5.596;2023-06-22T00:06:55;9.68;;;8.68;;
19205;SDS011;59358;52.134;5.596;2023-06-22T00:09:21;9.98;;;8.65;;
19205;SDS011;59358;52.134;5.596;2023-06-22T00:11:48;10.32;;;8.85;;
19205;SDS011;59358;52.134;5.596;2023-06-22T00:14:15;10.05;;;8.00;;
19205;SDS011;59358;52.134;5.596;2023-06-22T00:16:42;13.75;;;9.02;;
19205;SDS011;59358;52.134;5.596;2023-06-22T00:19:10;11.35;;;9.55;;
19205;SDS011;59358;52.134;5.596;2023-06-22T00:21:37;10.77;;;9.20;;
19205;SDS011;59358;52.134;5.596;2023-06-22T00:24:04;13.18;;;10.27;;
19205;SDS011;59358;52.134;5.596;2023-06-22T00:26:32;11.98;;;10.32;;
19205;SDS011;59358;52.134;5.596;2023-06-22T00:28:59;10.77;;;9.32;;
19205;SDS011;59358;52.134;5.596;2023-06-22T00:31:25;14.07;;;10.38;;
19205;SDS011;59358;52.134;5.596;2023-06-22T00:33:52;11.45;;;9.52;;
19205;SDS011;59358;52.134;5.596;2023-06-22T00:36:20;12.73;;;10.25;;
19205;SDS011;59358;52.134;5.596;2023-06-22T00:38:49;11.55;;;9.90;;
19205;SDS011;59358;52.134;5.596;2023-06-22T00:41:16;10.90;;;9.63;;
19205;SDS011;59358;52.134;5.596;2023-06-22T00:43:44;12.70;;;10.48;;
19205;SDS011;59358;52.134;5.596;2023-06-22T00:46:11;13.15;;;10.27;;
19205;SDS011;59358;52.134;5.596;2023-06-22T00:48:38;12.77;;;9.80;;
19205;SDS011;59358;52.134;5.596;2023-06-22T00:51:06;11.57;;;9.45;;
19205;SDS011;59358;52.134;5.596;2023-06-22T00:53:35;10.10;;;9.05;;
19205;SDS011;59358;52.134;5.596;2023-06-22T00:56:03;12.38;;;9.73;;
19205;SDS011;59358;52.134;5.596;2023-06-22T00:58:31;14.10;;;9.43;;
19205;SDS011;59358;52.134;5.596;2023-06-22T01:00:58;10.98;;;9.10;;
19205;SDS011;59358;52.134;5.596;2023-06-22T01:03:26;10.52;;;9.43;;
19205;SDS011;59358;52.134;5.596;2023-06-22T01:05:53;11.18;;;8.88;;
19205;SDS011;59358;52.134;5.596;2023-06-22T01:08:29;15.32;;;10.73;;
19205;SDS011;59358;52.134;5.596;2023-06-22T01:11:05;12.18;;;9.15;;
19205;SDS011;59358;52.134;5.596;2023-06-22T01:13:37;11.07;;;9.73;;
19205;SDS011;59358;52.134;5.596;2023-06-22T01:16:14;13.80;;;10.45;;
19205;SDS011;59358;52.134;5.596;2023-06-22T01:18:46;15.35;;;12.10;;
19205;SDS011;59358;52.134;5.596;2023-06-22T01:21:17;15.20;;;12.10;;
19205;SDS011;59358;52.134;5.596;2023-06-22T01:23:51;13.55;;;10.82;;
19205;SDS011;59358;52.134;5.596;2023-06-22T01:26:28;14.75;;;10.80;;
19205;SDS011;59358;52.134;5.596;2023-06-22T01:29:03;14.25;;;11.35;;
19205;SDS011;59358;52.134;5.596;2023-06-22T01:31:32;14.43;;;11.48;;
19205;SDS011;59358;52.134;5.596;2023-06-22T01:34:01;15.02;;;11.40;;
19205;SDS011;59358;52.134;5.596;2023-06-22T01:36:30;14.65;;;12.02;;
19205;SDS011;59358;52.134;5.596;2023-06-22T01:38:59;13.57;;;10.70;;
19205;SDS011;59358;52.134;5.596;2023-06-22T01:41:27;14.32;;;11.32;;
19205;SDS011;59358;52.134;5.596;2023-06-22T01:43:56;17.15;;;11.43;;
19205;SDS011;59358;52.134;5.596;2023-06-22T01:46:24;16.15;;;11.23;;
19205;SDS011;59358;52.134;5.596;2023-06-22T01:48:51;13.73;;;11.07;;
19205;SDS011;59358;52.134;5.596;2023-06-22T01:51:19;16.75;;;12.98;;
19205;SDS011;59358;52.134;5.596;2023-06-22T01:53:46;17.17;;;11.82;;
19205;SDS011;59358;52.134;5.596;2023-06-22T01:56:13;15.13;;;12.60;;
19205;SDS011;59358;52.134;5.596;2023-06-22T01:58:44;15.35;;;11.88;;
19205;SDS011;59358;52.134;5.596;2023-06-22T02:01:18;17.33;;;12.73;;
19205;SDS011;59358;52.134;5.596;2023-06-22T02:03:52;21.23;;;13.43;;
19205;SDS011;59358;52.134;5.596;2023-06-22T02:06:24;15.55;;;12.55;;
19205;SDS011;59358;52.134;5.596;2023-06-22T02:09:02;17.70;;;13.80;;
19205;SDS011;59358;52.134;5.596;2023-06-22T02:11:32;19.23;;;13.50;;
19205;SDS011;59358;52.134;5.596;2023-06-22T02:14:01;15.55;;;13.35;;
19205;SDS011;59358;52.134;5.596;2023-06-22T02:16:28;17.05;;;12.98;;
19205;SDS011;59358;52.134;5.596;2023-06-22T02:18:59;14.98;;;12.35;;
19205;SDS011;59358;52.134;5.596;2023-06-22T02:21:29;22.15;;;13.93;;
19205;SDS011;59358;52.134;5.596;2023-06-22T02:23:57;15.50;;;13.43;;
19205;SDS011;59358;52.134;5.596;2023-06-22T02:26:24;17.38;;;13.35;;
19205;SDS011;59358;52.134;5.596;2023-06-22T02:28:52;16.20;;;13.65;;
19205;SDS011;59358;52.134;5.596;2023-06-22T02:31:19;21.27;;;13.25;;
19205;SDS011;59358;52.134;5.596;2023-06-22T02:33:46;17.38;;;13.25;;
19205;SDS011;59358;52.134;5.596;2023-06-22T02:36:14;18.80;;;14.35;;
19205;SDS011;59358;52.134;5.596;2023-06-22T02:38:42;24.33;;;15.75;;
19205;SDS011;59358;52.134;5.596;2023-06-22T02:41:13;17.13;;;14.18;;
19205;SDS011;59358;52.134;5.596;2023-06-22T02:43:43;20.35;;;15.40;;
19205;SDS011;59358;52.134;5.596;2023-06-22T02:46:11;20.63;;;15.13;;
19205;SDS011;59358;52.134;5.596;2023-06-22T02:48:38;29.13;;;14.65;;
19205;SDS011;59358;52.134;5.596;2023-06-22T02:51:05;20.05;;;14.13;;
19205;SDS011;59358;52.134;5.596;2023-06-22T02:53:33;21.70;;;16.15;;
19205;SDS011;59358;52.134;5.596;2023-06-22T02:56:01;25.30;;;17.38;;
19205;SDS011;59358;52.134;5.596;2023-06-22T02:58:30;21.13;;;15.95;;
19205;SDS011;59358;52.134;5.596;2023-06-22T03:01:03;19.67;;;15.57;;
19205;SDS011;59358;52.134;5.596;2023-06-22T03:03:30;18.50;;;15.02;;
19205;SDS011;59358;52.134;5.596;2023-06-22T03:05:58;19.15;;;14.45;;
19205;SDS011;59358;52.134;5.596;2023-06-22T03:08:26;21.25;;;14.90;;
19205;SDS011;59358;52.134;5.596;2023-06-22T03:10:55;18.77;;;14.80;;
19205;SDS011;59358;52.134;5.596;2023-06-22T03:13:21;25.35;;;15.73;;
19205;SDS011;59358;52.134;5.596;2023-06-22T03:15:48;20.63;;;16.15;;
19205;SDS011;59358;52.134;5.596;2023-06-22T03:18:15;24.40;;;17.48;;
19205;SDS011;59358;52.134;5.596;2023-06-22T03:20:42;28.73;;;17.90;;
19205;SDS011;59358;52.134;5.596;2023-06-22T03:23:09;22.33;;;17.13;;
19205;SDS011;59358;52.134;5.596;2023-06-22T03:25:36;28.20;;;18.48;;
19205;SDS011;59358;52.134;5.596;2023-06-22T03:28:04;22.85;;;17.25;;
19205;SDS011;59358;52.134;5.596;2023-06-22T03:30:31;27.98;;;18.50;;
19205;SDS011;59358;52.134;5.596;2023-06-22T03:32:57;26.52;;;18.02;;
19205;SDS011;59358;52.134;5.596;2023-06-22T03:35:24;24.55;;;18.55;;
19205;SDS011;59358;52.134;5.596;2023-06-22T03:37:51;26.50;;;17.80;;
19205;SDS011;59358;52.134;5.596;2023-06-22T03:40:18;22.95;;;17.67;;
19205;SDS011;59358;52.134;5.596;2023-06-22T03:42:45;29.35;;;19.02;;
19205;SDS011;59358;52.134;5.596;2023-06-22T03:45:13;26.92;;;18.38;;
19205;SDS011;59358;52.134;5.596;2023-06-22T03:47:40;30.50;;;18.17;;
19205;SDS011;59358;52.134;5.596;2023-06-22T03:50:07;30.95;;;18.50;;
19205;SDS011;59358;52.134;5.596;2023-06-22T03:52:35;34.25;;;20.73;;
19205;SDS011;59358;52.134;5.596;2023-06-22T03:55:02;26.67;;;19.77;;
19205;SDS011;59358;52.134;5.596;2023-06-22T03:57:29;33.83;;;20.73;;
19205;SDS011;59358;52.134;5.596;2023-06-22T03:59:56;28.48;;;20.27;;
19205;SDS011;59358;52.134;5.596;2023-06-22T04:02:25;38.30;;;23.00;;
19205;SDS011;59358;52.134;5.596;2023-06-22T04:04:52;30.17;;;22.13;;
19205;SDS011;59358;52.134;5.596;2023-06-22T04:07:19;30.80;;;22.13;;
19205;SDS011;59358;52.134;5.596;2023-06-22T04:09:46;34.00;;;22.98;;
19205;SDS011;59358;52.134;5.596;2023-06-22T04:12:12;35.83;;;23.13;;
19205;SDS011;59358;52.134;5.596;2023-06-22T04:14:39;37.58;;;25.38;;
19205;SDS011;59358;52.134;5.596;2023-06-22T04:17:06;33.67;;;25.10;;
19205;SDS011;59358;52.134;5.596;2023-06-22T04:19:34;31.60;;;23.95;;
19205;SDS011;59358;52.134;5.596;2023-06-22T04:22:01;34.42;;;25.65;;
19205;SDS011;59358;52.134;5.596;2023-06-22T04:24:28;37.22;;;26.65;;
19205;SDS011;59358;52.134;5.596;2023-06-22T04:26:55;40.10;;;26.30;;
19205;SDS011;59358;52.134;5.596;2023-06-22T04:29:22;45.35;;;28.60;;
19205;SDS011;59358;52.134;5.596;2023-06-22T04:31:53;41.03;;;28.95;;
19205;SDS011;59358;52.134;5.596;2023-06-22T04:34:22;46.20;;;31.90;;
19205;SDS011;59358;52.134;5.596;2023-06-22T04:36:52;48.25;;;34.33;;
19205;SDS011;59358;52.134;5.596;2023-06-22T04:39:20;45.67;;;32.85;;
19205;SDS011;59358;52.134;5.596;2023-06-22T04:41:47;47.92;;;32.28;;
19205;SDS011;59358;52.134;5.596;2023-06-22T04:44:16;45.92;;;34.67;;
19205;SDS011;59358;52.134;5.596;2023-06-22T04:46:48;48.83;;;33.22;;
19205;SDS011;59358;52.134;5.596;2023-06-22T04:49:18;49.78;;;34.40;;
19205;SDS011;59358;52.134;5.596;2023-06-22T04:51:47;52.83;;;36.40;;
19205;SDS011;59358;52.134;5.596;2023-06-22T04:54:18;50.67;;;35.88;;
19205;SDS011;59358;52.134;5.596;2023-06-22T04:56:45;59.75;;;40.08;;
19205;SDS011;59358;52.134;5.596;2023-06-22T04:59:11;49.80;;;37.63;;
19205;SDS011;59358;52.134;5.596;2023-06-22T05:01:39;55.30;;;38.30;;
19205;SDS011;59358;52.134;5.596;2023-06-22T05:04:05;54.20;;;38.10;;
19205;SDS011;59358;52.134;5.596;2023-06-22T05:06:32;55.13;;;38.58;;
19205;SDS011;59358;52.134;5.596;2023-06-22T05:08:59;52.97;;;39.55;;
19205;SDS011;59358;52.134;5.596;2023-06-22T05:11:29;57.17;;;42.30;;
19205;SDS011;59358;52.134;5.596;2023-06-22T05:13:55;59.88;;;42.13;;
19205;SDS011;59358;52.134;5.596;2023-06-22T05:16:22;71.05;;;46.40;;
19205;SDS011;59358;52.134;5.596;2023-06-22T05:18:51;58.70;;;42.72;;
19205;SDS011;59358;52.134;5.596;2023-06-22T05:21:21;65.13;;;44.75;;
19205;SDS011;59358;52.134;5.596;2023-06-22T05:23:49;60.40;;;43.33;;
19205;SDS011;59358;52.134;5.596;2023-06-22T05:26:16;56.60;;;43.30;;
19205;SDS011;59358;52.134;5.596;2023-06-22T05:28:45;56.17;;;42.80;;
19205;SDS011;59358;52.134;5.596;2023-06-22T05:31:12;57.85;;;42.63;;
19205;SDS011;59358;52.134;5.596;2023-06-22T05:33:40;57.10;;;43.72;;
19205;SDS011;59358;52.134;5.596;2023-06-22T05:36:07;53.55;;;42.15;;
19205;SDS011;59358;52.134;5.596;2023-06-22T05:38:36;58.88;;;43.38;;
19205;SDS011;59358;52.134;5.596;2023-06-22T05:41:03;52.78;;;41.60;;
19205;SDS011;59358;52.134;5.596;2023-06-22T05:43:30;56.15;;;42.22;;
19205;SDS011;59358;52.134;5.596;2023-06-22T05:45:59;50.97;;;40.08;;
19205;SDS011;59358;52.134;5.596;2023-06-22T05:48:27;57.70;;;41.95;;
19205;SDS011;59358;52.134;5.596;2023-06-22T05:50:54;53.63;;;40.03;;
19205;SDS011;59358;52.134;5.596;2023-06-22T05:53:21;48.17;;;38.03;;
19205;SDS011;59358;52.134;5.596;2023-06-22T05:55:47;50.38;;;37.75;;
19205;SDS011;59358;52.134;5.596;2023-06-22T05:58:15;51.67;;;37.60;;
19205;SDS011;59358;52.134;5.596;2023-06-22T06:00:42;46.92;;;35.53;;
19205;SDS011;59358;52.134;5.596;2023-06-22T06:03:10;42.10;;;33.63;;
19205;SDS011;59358;52.134;5.596;2023-06-22T06:05:37;43.97;;;35.83;;
19205;SDS011;59358;52.134;5.596;2023-06-22T06:08:05;42.33;;;33.70;;
19205;SDS011;59358;52.134;5.596;2023-06-22T06:10:32;42.85;;;34.08;;
19205;SDS011;59358;52.134;5.596;2023-06-22T06:13:00;45.45;;;31.60;;
19205;SDS011;59358;52.134;5.596;2023-06-22T06:15:29;36.35;;;28.75;;
19205;SDS011;59358;52.134;5.596;2023-06-22T06:17:56;38.13;;;31.65;;
19205;SDS011;59358;52.134;5.596;2023-06-22T06:20:25;41.65;;;32.15;;
19205;SDS011;59358;52.134;5.596;2023-06-22T06:22:54;38.53;;;31.40;;
19205;SDS011;59358;52.134;5.596;2023-06-22T06:25:21;41.28;;;32.25;;
19205;SDS011;59358;52.134;5.596;2023-06-22T06:27:48;40.85;;;31.52;;
19205;SDS011;59358;52.134;5.596;2023-06-22T06:30:16;37.97;;;29.83;;
19205;SDS011;59358;52.134;5.596;2023-06-22T06:32:45;38.42;;;31.27;;
19205;SDS011;59358;52.134;5.596;2023-06-22T06:35:13;37.88;;;29.95;;
19205;SDS011;59358;52.134;5.596;2023-06-22T06:37:43;34.92;;;28.73;;
19205;SDS011;59358;52.134;5.596;2023-06-22T06:40:12;41.63;;;28.50;;
19205;SDS011;59358;52.134;5.596;2023-06-22T06:42:40;35.08;;;28.90;;
19205;SDS011;59358;52.134;5.596;2023-06-22T06:45:09;35.67;;;28.88;;
19205;SDS011;59358;52.134;5.596;2023-06-22T06:47:37;35.63;;;27.63;;
19205;SDS011;59358;52.134;5.596;2023-06-22T06:50:04;37.38;;;28.90;;
19205;SDS011;59358;52.134;5.596;2023-06-22T06:52:31;39.03;;;27.10;;
19205;SDS011;59358;52.134;5.596;2023-06-22T06:55:00;30.60;;;24.70;;
19205;SDS011;59358;52.134;5.596;2023-06-22T06:57:29;32.38;;;26.10;;
19205;SDS011;59358;52.134;5.596;2023-06-22T06:59:57;32.88;;;25.30;;
19205;SDS011;59358;52.134;5.596;2023-06-22T07:02:25;33.10;;;24.02;;
19205;SDS011;59358;52.134;5.596;2023-06-22T07:04:52;27.50;;;23.50;;
19205;SDS011;59358;52.134;5.596;2023-06-22T07:07:21;29.48;;;22.27;;
19205;SDS011;59358;52.134;5.596;2023-06-22T07:09:48;23.02;;;19.75;;
19205;SDS011;59358;52.134;5.596;2023-06-22T07:12:16;30.42;;;21.67;;
19205;SDS011;59358;52.134;5.596;2023-06-22T07:14:43;26.85;;;21.83;;
19205;SDS011;59358;52.134;5.596;2023-06-22T07:17:10;25.55;;;20.50;;
19205;SDS011;59358;52.134;5.596;2023-06-22T07:19:36;20.23;;;17.75;;
19205;SDS011;59358;52.134;5.596;2023-06-22T07:22:04;23.73;;;19.17;;
19205;SDS011;59358;52.134;5.596;2023-06-22T07:24:31;21.55;;;19.13;;
19205;SDS011;59358;52.134;5.596;2023-06-22T07:26:58;21.13;;;18.60;;
19205;SDS011;59358;52.134;5.596;2023-06-22T07:29:26;23.98;;;17.95;;
19205;SDS011;59358;52.134;5.596;2023-06-22T07:31:53;26.20;;;18.83;;
19205;SDS011;59358;52.134;5.596;2023-06-22T07:34:21;19.20;;;16.73;;
19205;SDS011;59358;52.134;5.596;2023-06-22T07:36:48;23.27;;;17.52;;
19205;SDS011;59358;52.134;5.596;2023-06-22T07:39:15;25.40;;;17.55;;
19205;SDS011;59358;52.134;5.596;2023-06-22T07:41:42;18.20;;;16.17;;
19205;SDS011;59358;52.134;5.596;2023-06-22T07:44:08;21.30;;;15.98;;
19205;SDS011;59358;52.134;5.596;2023-06-22T07:46:37;24.35;;;15.75;;
19205;SDS011;59358;52.134;5.596;2023-06-22T07:49:03;21.58;;;15.15;;
19205;SDS011;59358;52.134;5.596;2023-06-22T07:51:30;26.08;;;17.27;;
19205;SDS011;59358;52.134;5.596;2023-06-22T07:53:57;28.40;;;14.93;;
19205;SDS011;59358;52.134;5.596;2023-06-22T07:56:24;18.63;;;14.68;;
19205;SDS011;59358;52.134;5.596;2023-06-22T07:58:50;18.67;;;13.82;;
19205;SDS011;59358;52.134;5.596;2023-06-22T08:01:18;21.63;;;15.50;;
19205;SDS011;59358;52.134;5.596;2023-06-22T08:03:47;18.15;;;15.52;;
19205;SDS011;59358;52.134;5.596;2023-06-22T08:06:14;17.35;;;14.35;;
19205;SDS011;59358;52.134;5.596;2023-06-22T08:08:41;19.02;;;14.35;;
19205;SDS011;59358;52.134;5.596;2023-06-22T08:11:08;18.73;;;14.98;;
19205;SDS011;59358;52.134;5.596;2023-06-22T08:13:35;16.95;;;14.52;;
19205;SDS011;59358;52.134;5.596;2023-06-22T08:16:02;19.90;;;13.60;;
19205;SDS011;59358;52.134;5.596;2023-06-22T08:18:29;18.20;;;13.93;;
19205;SDS011;59358;52.134;5.596;2023-06-22T08:20:58;20.00;;;14.43;;
19205;SDS011;59358;52.134;5.596;2023-06-22T08:23:24;20.02;;;12.93;;
19205;SDS011;59358;52.134;5.596;2023-06-22T08:25:51;15.30;;;12.98;;
19205;SDS011;59358;52.134;5.596;2023-06-22T08:28:18;15.85;;;12.65;;
19205;SDS011;59358;52.134;5.596;2023-06-22T08:30:45;15.90;;;11.73;;
19205;SDS011;59358;52.134;5.596;2023-06-22T08:33:12;14.85;;;11.20;;
19205;SDS011;59358;52.134;5.596;2023-06-22T08:35:39;15.00;;;10.98;;
19205;SDS011;59358;52.134;5.596;2023-06-22T08:38:07;12.77;;;11.32;;
19205;SDS011;59358;52.134;5.596;2023-06-22T08:40:34;13.15;;;10.60;;
19205;SDS011;59358;52.134;5.596;2023-06-22T08:43:00;11.27;;;9.80;;
19205;SDS011;59358;52.134;5.596;2023-06-22T08:45:27;8.88;;;7.93;;
19205;SDS011;59358;52.134;5.596;2023-06-22T08:47:54;9.85;;;7.32;;
19205;SDS011;59358;52.134;5.596;2023-06-22T08:50:21;11.07;;;8.50;;
19205;SDS011;59358;52.134;5.596;2023-06-22T08:52:48;10.98;;;8.50;;
19205;SDS011;59358;52.134;5.596;2023-06-22T08:55:16;10.88;;;9.32;;
19205;SDS011;59358;52.134;5.596;2023-06-22T08:57:43;11.02;;;9.30;;
19205;SDS011;59358;52.134;5.596;2023-06-22T09:00:11;10.45;;;8.38;;
19205;SDS011;59358;52.134;5.596;2023-06-22T09:02:45;9.65;;;8.15;;
19205;SDS011;59358;52.134;5.596;2023-06-22T09:05:13;12.48;;;8.32;;
19205;SDS011;59358;52.134;5.596;2023-06-22T09:07:40;9.75;;;8.75;;
19205;SDS011;59358;52.134;5.596;2023-06-22T09:10:08;9.55;;;7.32;;
19205;SDS011;59358;52.134;5.596;2023-06-22T09:12:36;8.75;;;6.68;;
19205;SDS011;59358;52.134;5.596;2023-06-22T09:15:03;9.88;;;6.68;;
19205;SDS011;59358;52.134;5.596;2023-06-22T09:17:32;8.23;;;4.80;;
19205;SDS011;59358;52.134;5.596;2023-06-22T09:19:59;6.75;;;5.80;;
19205;SDS011;59358;52.134;5.596;2023-06-22T09:22:27;8.05;;;7.10;;
19205;SDS011;59358;52.134;5.596;2023-06-22T09:24:54;12.93;;;7.90;;
19205;SDS011;59358;52.134;5.596;2023-06-22T09:27:21;12.38;;;6.93;;
19205;SDS011;59358;52.134;5.596;2023-06-22T09:29:49;8.40;;;7.00;;
19205;SDS011;59358;52.134;5.596;2023-06-22T09:32:16;9.02;;;6.43;;
19205;SDS011;59358;52.134;5.596;2023-06-22T09:34:43;8.07;;;5.78;;
19205;SDS011;59358;52.134;5.596;2023-06-22T09:37:10;6.55;;;5.80;;
19205;SDS011;59358;52.134;5.596;2023-06-22T09:39:37;10.88;;;6.93;;
19205;SDS011;59358;52.134;5.596;2023-06-22T09:42:04;8.55;;;7.30;;
19205;SDS011;59358;52.134;5.596;2023-06-22T09:44:32;8.35;;;7.00;;
19205;SDS011;59358;52.134;5.596;2023-06-22T09:47:00;9.82;;;6.90;;
19205;SDS011;59358;52.134;5.596;2023-06-22T09:49:27;7.22;;;6.38;;
19205;SDS011;59358;52.134;5.596;2023-06-22T09:51:54;9.55;;;6.57;;
19205;SDS011;59358;52.134;5.596;2023-06-22T09:54:20;8.55;;;6.50;;
19205;SDS011;59358;52.134;5.596;2023-06-22T09:56:47;8.38;;;6.35;;
19205;SDS011;59358;52.134;5.596;2023-06-22T09:59:14;10.13;;;7.45;;
19205;SDS011;59358;52.134;5.596;2023-06-22T10:01:56;10.60;;;7.95;;
19205;SDS011;59358;52.134;5.596;2023-06-22T10:04:24;10.82;;;7.43;;
19205;SDS011;59358;52.134;5.596;2023-06-22T10:06:51;9.23;;;7.20;;
19205;SDS011;59358;52.134;5.596;2023-06-22T10:09:18;11.60;;;7.53;;
19205;SDS011;59358;52.134;5.596;2023-06-22T10:11:46;9.40;;;7.70;;
19205;SDS011;59358;52.134;5.596;2023-06-22T10:14:13;10.40;;;7.95;;
19205;SDS011;59358;52.134;5.596;2023-06-22T10:16:40;10.73;;;8.00;;
19205;SDS011;59358;52.134;5.596;2023-06-22T10:19:07;10.20;;;7.90;;
19205;SDS011;59358;52.134;5.596;2023-06-22T10:21:35;10.32;;;8.15;;
19205;SDS011;59358;52.134;5.596;2023-06-22T10:24:02;11.93;;;8.23;;
19205;SDS011;59358;52.134;5.596;2023-06-22T10:26:31;10.27;;;8.60;;
19205;SDS011;59358;52.134;5.596;2023-06-22T10:28:58;9.68;;;7.10;;
19205;SDS011;59358;52.134;5.596;2023-06-22T10:31:25;9.15;;;7.47;;
19205;SDS011;59358;52.134;5.596;2023-06-22T10:33:52;11.68;;;7.43;;
19205;SDS011;59358;52.134;5.596;2023-06-22T10:36:19;10.98;;;7.82;;
19205;SDS011;59358;52.134;5.596;2023-06-22T10:38:48;9.55;;;7.38;;
19205;SDS011;59358;52.134;5.596;2023-06-22T10:41:15;12.32;;;8.02;;
19205;SDS011;59358;52.134;5.596;2023-06-22T10:43:42;8.95;;;7.20;;
19205;SDS011;59358;52.134;5.596;2023-06-22T10:46:09;8.63;;;7.47;;
19205;SDS011;59358;52.134;5.596;2023-06-22T10:48:36;8.38;;;7.53;;
19205;SDS011;59358;52.134;5.596;2023-06-22T10:51:02;11.23;;;7.13;;
19205;SDS011;59358;52.134;5.596;2023-06-22T10:53:29;9.70;;;7.60;;
19205;SDS011;59358;52.134;5.596;2023-06-22T10:55:57;9.02;;;7.43;;
19205;SDS011;59358;52.134;5.596;2023-06-22T10:58:24;14.30;;;8.50;;
19205;SDS011;59358;52.134;5.596;2023-06-22T11:00:51;8.90;;;6.85;;
19205;SDS011;59358;52.134;5.596;2023-06-22T11:03:19;10.98;;;7.82;;
19205;SDS011;59358;52.134;5.596;2023-06-22T11:05:46;11.35;;;7.90;;
19205;SDS011;59358;52.134;5.596;2023-06-22T11:08:13;9.93;;;6.85;;
19205;SDS011;59358;52.134;5.596;2023-06-22T11:10:40;8.15;;;7.03;;
19205;SDS011;59358;52.134;5.596;2023-06-22T11:13:08;9.48;;;7.72;;
19205;SDS011;59358;52.134;5.596;2023-06-22T11:15:35;12.40;;;8.50;;
19205;SDS011;59358;52.134;5.596;2023-06-22T11:18:02;9.38;;;7.25;;
19205;SDS011;59358;52.134;5.596;2023-06-22T11:20:30;10.82;;;7.72;;
19205;SDS011;59358;52.134;5.596;2023-06-22T11:22:59;12.00;;;8.30;;
19205;SDS011;59358;52.134;5.596;2023-06-22T11:25:26;10.98;;;9.38;;
19205;SDS011;59358;52.134;5.596;2023-06-22T11:27:53;11.80;;;8.05;;
19205;SDS011;59358;52.134;5.596;2023-06-22T11:30:21;11.73;;;8.82;;
19205;SDS011;59358;52.134;5.596;2023-06-22T11:32:49;9.73;;;8.52;;
19205;SDS011;59358;52.134;5.596;2023-06-22T11:35:15;11.60;;;8.60;;
19205;SDS011;59358;52.134;5.596;2023-06-22T11:37:42;11.43;;;8.90;;
19205;SDS011;59358;52.134;5.596;2023-06-22T11:40:09;12.02;;;8.77;;
19205;SDS011;59358;52.134;5.596;2023-06-22T11:42:37;13.20;;;9.38;;
19205;SDS011;59358;52.134;5.596;2023-06-22T11:45:04;13.95;;;9.02;;
19205;SDS011;59358;52.134;5.596;2023-06-22T11:47:34;11.48;;;10.13;;
19205;SDS011;59358;52.134;5.596;2023-06-22T11:50:01;12.68;;;10.32;;
19205;SDS011;59358;52.134;5.596;2023-06-22T11:52:28;10.40;;;7.63;;
19205;SDS011;59358;52.134;5.596;2023-06-22T11:54:55;10.48;;;8.65;;
19205;SDS011;59358;52.134;5.596;2023-06-22T11:57:21;13.63;;;9.32;;
19205;SDS011;59358;52.134;5.596;2023-06-22T11:59:48;10.40;;;9.38;;
19205;SDS011;59358;52.134;5.596;2023-06-22T12:02:15;11.93;;;10.25;;
19205;SDS011;59358;52.134;5.596;2023-06-22T12:04:43;13.18;;;10.68;;
19205;SDS011;59358;52.134;5.596;2023-06-22T12:07:10;13.55;;;10.00;;
19205;SDS011;59358;52.134;5.596;2023-06-22T12:09:37;10.32;;;9.10;;
19205;SDS011;59358;52.134;5.596;2023-06-22T12:12:04;14.45;;;10.07;;
19205;SDS011;59358;52.134;5.596;2023-06-22T12:14:31;15.20;;;10.60;;
19205;SDS011;59358;52.134;5.596;2023-06-22T12:16:58;13.40;;;10.38;;
19205;SDS011;59358;52.134;5.596;2023-06-22T12:19:25;15.73;;;10.70;;
19205;SDS011;59358;52.134;5.596;2023-06-22T12:21:53;14.60;;;12.18;;
19205;SDS011;59358;52.134;5.596;2023-06-22T12:24:20;18.00;;;12.75;;
19205;SDS011;59358;52.134;5.596;2023-06-22T12:26:47;17.25;;;12.38;;
19205;SDS011;59358;52.134;5.596;2023-06-22T12:29:14;16.42;;;14.50;;
19205;SDS011;59358;52.134;5.596;2023-06-22T12:31:41;20.33;;;14.82;;
19205;SDS011;59358;52.134;5.596;2023-06-22T12:34:07;18.85;;;15.43;;
19205;SDS011;59358;52.134;5.596;2023-06-22T12:36:34;19.33;;;15.27;;
19205;SDS011;59358;52.134;5.596;2023-06-22T12:39:03;19.90;;;16.17;;
19205;SDS011;59358;52.134;5.596;2023-06-22T12:41:30;28.27;;;19.13;;
19205;SDS011;59358;52.134;5.596;2023-06-22T12:43:57;22.60;;;17.73;;
19205;SDS011;59358;52.134;5.596;2023-06-22T12:46:24;22.20;;;17.38;;
19205;SDS011;59358;52.134;5.596;2023-06-22T12:48:50;23.98;;;17.55;;
19205;SDS011;59358;52.134;5.596;2023-06-22T12:51:21;23.85;;;18.67;;
19205;SDS011;59358;52.134;5.596;2023-06-22T12:53:48;20.15;;;18.00;;
19205;SDS011;59358;52.134;5.596;2023-06-22T12:56:16;21.50;;;18.15;;
19205;SDS011;59358;52.134;5.596;2023-06-22T12:58:43;23.88;;;17.83;;
19205;SDS011;59358;52.134;5.596;2023-06-22T13:01:10;21.20;;;18.95;;
19205;SDS011;59358;52.134;5.596;2023-06-22T13:03:36;21.02;;;18.05;;
19205;SDS011;59358;52.134;5.596;2023-06-22T13:06:03;22.58;;;19.20;;
19205;SDS011;59358;52.134;5.596;2023-06-22T13:08:30;23.70;;;17.85;;
19205;SDS011;59358;52.134;5.596;2023-06-22T13:10:57;23.05;;;19.42;;
19205;SDS011;59358;52.134;5.596;2023-06-22T13:13:25;25.33;;;18.17;;
19205;SDS011;59358;52.134;5.596;2023-06-22T13:15:53;25.65;;;19.42;;
19205;SDS011;59358;52.134;5.596;2023-06-22T13:18:20;24.80;;;19.95;;
19205;SDS011;59358;52.134;5.596;2023-06-22T13:20:47;28.75;;;19.50;;
19205;SDS011;59358;52.134;5.596;2023-06-22T13:23:13;25.40;;;20.02;;
19205;SDS011;59358;52.134;5.596;2023-06-22T13:25:40;24.58;;;20.45;;
19205;SDS011;59358;52.134;5.596;2023-06-22T13:28:07;25.23;;;22.15;;
19205;SDS011;59358;52.134;5.596;2023-06-22T13:30:36;26.23;;;22.75;;
19205;SDS011;59358;52.134;5.596;2023-06-22T13:33:03;27.00;;;21.85;;
19205;SDS011;59358;52.134;5.596;2023-06-22T13:35:30;25.00;;;21.33;;
19205;SDS011;59358;52.134;5.596;2023-06-22T13:37:57;28.88;;;23.00;;
19205;SDS011;59358;52.134;5.596;2023-06-22T13:40:23;25.83;;;23.08;;
19205;SDS011;59358;52.134;5.596;2023-06-22T13:42:50;28.00;;;24.38;;
19205;SDS011;59358;52.134;5.596;2023-06-22T13:45:17;28.60;;;24.52;;
19205;SDS011;59358;52.134;5.596;2023-06-22T13:47:46;30.95;;;24.33;;
19205;SDS011;59358;52.134;5.596;2023-06-22T13:50:13;27.77;;;24.35;;
19205;SDS011;59358;52.134;5.596;2023-06-22T13:52:40;29.02;;;24.67;;
19205;SDS011;59358;52.134;5.596;2023-06-22T13:55:07;28.10;;;25.20;;
19205;SDS011;59358;52.134;5.596;2023-06-22T13:57:35;27.77;;;24.83;;
19205;SDS011;59358;52.134;5.596;2023-06-22T14:00:02;29.02;;;25.15;;
19205;SDS011;59358;52.134;5.596;2023-06-22T14:02:31;31.98;;;25.60;;
19205;SDS011;59358;52.134;5.596;2023-06-22T14:04:59;28.63;;;25.55;;
19205;SDS011;59358;52.134;5.596;2023-06-22T14:07:27;30.67;;;26.08;;
19205;SDS011;59358;52.134;5.596;2023-06-22T14:09:54;35.60;;;26.20;;
19205;SDS011;59358;52.134;5.596;2023-06-22T14:12:21;30.95;;;24.95;;
19205;SDS011;59358;52.134;5.596;2023-06-22T14:14:48;30.48;;;26.90;;
19205;SDS011;59358;52.134;5.596;2023-06-22T14:17:14;32.53;;;25.20;;
19205;SDS011;59358;52.134;5.596;2023-06-22T14:19:41;28.65;;;22.77;;
19205;SDS011;59358;52.134;5.596;2023-06-22T14:22:09;26.40;;;23.33;;
19205;SDS011;59358;52.134;5.596;2023-06-22T14:24:36;27.83;;;24.92;;
19205;SDS011;59358;52.134;5.596;2023-06-22T14:27:03;28.80;;;24.90;;
19205;SDS011;59358;52.134;5.596;2023-06-22T14:29:32;27.13;;;22.63;;